Time;durP1;ratioP1;P1;durP2;ratioP2;P2;SDS_P1;SDS_P2;PMS_P1;PMS_P2;Temp;Humidity;BMP_temperature;BMP_pressure;BME280_temperature;BME280_humidity;BME280_pressure;Samples;Min_cycle;Max_cycle;Signal;HPM_P1;HPM_P2
2022/05/02 00:01:32;;;;;;;8.27;5.37;;;;;;;;;;4989059;28;20896;-82
2022/05/02 00:03:59;;;;;;;5.57;4.83;;;;;;;;;;4988705;28;20478;-83
2022/05/02 00:06:25;;;;;;;5.37;4.87;;;;;;;;;;4988126;28;20934;-82
2022/05/02 00:08:51;;;;;;;7.90;5.30;;;;;;;;;;4988131;28;20494;-82
2022/05/02 00:11:18;;;;;;;8.83;6.37;;;;;;;;;;4989494;28;20522;-83
2022/05/02 00:13:44;;;;;;;5.97;5.03;;;;;;;;;;4988408;28;21011;-81
2022/05/02 00:16:11;;;;;;;5.53;5.00;;;;;;;;;;4990114;28;20893;-83
2022/05/02 00:18:38;;;;;;;7.90;5.43;;;;;;;;;;4986931;28;20963;-83
2022/05/02 00:21:04;;;;;;;5.37;4.87;;;;;;;;;;4988807;28;21102;-83
2022/05/02 00:23:30;;;;;;;7.07;4.80;;;;;;;;;;4990807;28;20468;-83
2022/05/02 00:25:56;;;;;;;6.27;5.50;;;;;;;;;;4990342;28;20886;-82
2022/05/02 00:28:23;;;;;;;8.50;5.83;;;;;;;;;;4989670;28;20482;-82
2022/05/02 00:30:49;;;;;;;7.80;5.90;;;;;;;;;;4989762;28;21078;-82
2022/05/02 00:33:18;;;;;;;8.60;6.23;;;;;;;;;;4989952;28;20521;-83
2022/05/02 00:35:44;;;;;;;7.50;6.30;;;;;;;;;;4990141;28;20495;-82
2022/05/02 00:38:11;;;;;;;12.23;6.37;;;;;;;;;;4991683;28;20532;-83
2022/05/02 00:40:37;;;;;;;6.97;6.13;;;;;;;;;;4989982;28;20517;-83
2022/05/02 00:43:03;;;;;;;8.70;6.87;;;;;;;;;;4990129;28;20463;-82
2022/05/02 00:45:30;;;;;;;10.50;7.03;;;;;;;;;;4990366;28;20599;-82
2022/05/02 00:47:57;;;;;;;10.57;6.00;;;;;;;;;;4990341;28;21103;-82
2022/05/02 00:50:33;;;;;;;6.80;6.10;;;;;;;;;;4988873;28;20469;-82
2022/05/02 00:52:59;;;;;;;7.80;6.83;;;;;;;;;;4990667;28;20463;-82
2022/05/02 00:55:26;;;;;;;7.07;6.30;;;;;;;;;;4991305;28;20482;-82
2022/05/02 00:57:52;;;;;;;11.27;5.80;;;;;;;;;;4990585;28;20474;-82
2022/05/02 01:00:18;;;;;;;8.83;6.30;;;;;;;;;;4989364;28;20840;-83
2022/05/02 01:02:45;;;;;;;8.60;6.90;;;;;;;;;;4989239;28;20462;-81
2022/05/02 01:05:11;;;;;;;11.73;6.37;;;;;;;;;;4990504;28;20482;-82
2022/05/02 01:07:38;;;;;;;10.03;6.40;;;;;;;;;;4990243;28;21113;-83
2022/05/02 01:10:05;;;;;;;6.30;5.77;;;;;;;;;;4991271;28;20554;-82
2022/05/02 01:12:31;;;;;;;7.10;5.97;;;;;;;;;;4993404;28;20459;-82
2022/05/02 01:14:58;;;;;;;8.73;6.83;;;;;;;;;;4993538;28;20470;-82
2022/05/02 01:17:24;;;;;;;13.43;6.90;;;;;;;;;;4990671;28;20463;-81
2022/05/02 01:19:51;;;;;;;9.80;7.07;;;;;;;;;;4990473;28;20538;-81
2022/05/02 01:22:19;;;;;;;7.77;6.60;;;;;;;;;;4992031;28;20459;-82
2022/05/02 01:24:45;;;;;;;12.47;6.60;;;;;;;;;;4990350;28;20486;-82
2022/05/02 01:27:13;;;;;;;12.43;7.40;;;;;;;;;;4990402;28;20468;-82
2022/05/02 01:29:42;;;;;;;7.13;6.13;;;;;;;;;;4990815;28;21199;-82
2022/05/02 01:32:10;;;;;;;6.20;5.60;;;;;;;;;;4992083;28;20962;-83
2022/05/02 01:34:37;;;;;;;9.13;6.50;;;;;;;;;;4992864;28;20495;-82
2022/05/02 01:37:04;;;;;;;7.53;6.83;;;;;;;;;;4993882;28;20450;-82
2022/05/02 01:39:31;;;;;;;7.37;5.60;;;;;;;;;;4989221;28;20485;-84
2022/05/02 01:41:59;;;;;;;7.23;6.63;;;;;;;;;;4992943;28;20450;-83
2022/05/02 01:44:26;;;;;;;7.13;5.93;;;;;;;;;;4993210;28;20525;-82
2022/05/02 01:46:52;;;;;;;7.97;6.20;;;;;;;;;;4993485;28;20467;-82
2022/05/02 01:49:18;;;;;;;9.60;6.07;;;;;;;;;;4992578;28;20503;-82
2022/05/02 01:51:44;;;;;;;7.40;6.70;;;;;;;;;;4987602;28;20540;-80
2022/05/02 01:54:11;;;;;;;8.37;6.67;;;;;;;;;;4988673;28;20541;-82
2022/05/02 01:56:38;;;;;;;12.40;7.53;;;;;;;;;;4984709;28;20472;-82
2022/05/02 01:59:05;;;;;;;8.30;6.13;;;;;;;;;;4987213;28;20505;-84
2022/05/02 02:01:31;;;;;;;9.30;6.80;;;;;;;;;;4987286;28;20501;-82
2022/05/02 02:03:59;;;;;;;10.73;6.93;;;;;;;;;;4987180;28;20537;-82
2022/05/02 02:06:24;;;;;;;9.47;5.83;;;;;;;;;;4987148;28;20525;-82
2022/05/02 02:08:51;;;;;;;8.03;7.20;;;;;;;;;;4987557;28;20901;-84
2022/05/02 02:11:17;;;;;;;7.00;6.10;;;;;;;;;;4988258;28;20229;-82
2022/05/02 02:13:45;;;;;;;9.13;7.30;;;;;;;;;;4986279;28;20488;-83
2022/05/02 02:16:13;;;;;;;7.50;5.80;;;;;;;;;;4988711;28;20899;-82
2022/05/02 02:18:40;;;;;;;9.17;6.67;;;;;;;;;;4989175;28;20474;-83
2022/05/02 02:21:07;;;;;;;9.80;7.00;;;;;;;;;;4988004;28;20492;-82
2022/05/02 02:23:33;;;;;;;8.27;6.40;;;;;;;;;;4988133;28;20474;-84
2022/05/02 02:26:00;;;;;;;9.70;6.60;;;;;;;;;;4988078;28;20486;-83
2022/05/02 02:28:26;;;;;;;8.30;7.50;;;;;;;;;;4986894;28;20869;-83
2022/05/02 02:30:54;;;;;;;7.43;6.37;;;;;;;;;;4989358;28;20507;-82
2022/05/02 02:33:21;;;;;;;13.13;7.37;;;;;;;;;;4987009;28;20485;-82
2022/05/02 02:35:47;;;;;;;9.77;7.50;;;;;;;;;;4987912;28;20557;-82
2022/05/02 02:38:13;;;;;;;8.00;7.13;;;;;;;;;;4988356;28;20442;-82
2022/05/02 02:40:40;;;;;;;9.77;7.27;;;;;;;;;;4987639;28;20484;-82
2022/05/02 02:43:07;;;;;;;9.87;7.27;;;;;;;;;;4986638;28;20510;-82
2022/05/02 02:45:33;;;;;;;11.63;7.30;;;;;;;;;;4986811;28;20517;-82
2022/05/02 02:48:01;;;;;;;8.40;7.47;;;;;;;;;;4987329;28;20521;-80
2022/05/02 02:50:27;;;;;;;11.00;6.90;;;;;;;;;;4987386;28;20493;-84
2022/05/02 02:52:53;;;;;;;8.07;6.37;;;;;;;;;;4987863;28;20477;-82
2022/05/02 02:55:20;;;;;;;10.07;7.77;;;;;;;;;;4986328;28;20542;-82
2022/05/02 02:57:46;;;;;;;9.30;7.73;;;;;;;;;;4984660;28;20533;-82
2022/05/02 03:00:13;;;;;;;8.00;6.37;;;;;;;;;;4985983;28;20892;-82
2022/05/02 03:02:40;;;;;;;7.60;6.80;;;;;;;;;;4987056;28;20570;-82
2022/05/02 03:07:52;;;;;;;8.17;6.27;;;;;;;;;;4988602;28;20486;-82
2022/05/02 03:10:19;;;;;;;9.13;8.03;;;;;;;;;;4986867;28;20486;-82
2022/05/02 03:12:46;;;;;;;8.50;7.50;;;;;;;;;;4986356;28;20471;-82
2022/05/02 03:15:12;;;;;;;10.47;7.13;;;;;;;;;;4986964;28;21055;-82
2022/05/02 03:17:38;;;;;;;9.67;7.87;;;;;;;;;;4987493;28;20466;-82
2022/05/02 03:20:05;;;;;;;11.63;7.20;;;;;;;;;;4985665;28;21078;-82
2022/05/02 03:22:32;;;;;;;11.50;6.90;;;;;;;;;;4986695;28;20463;-82
2022/05/02 03:24:59;;;;;;;9.80;7.37;;;;;;;;;;4986839;28;21028;-82
2022/05/02 03:27:25;;;;;;;9.70;7.23;;;;;;;;;;4987024;28;20973;-85
2022/05/02 03:29:51;;;;;;;6.73;5.90;;;;;;;;;;4985661;28;20475;-83
2022/05/02 03:32:17;;;;;;;7.47;6.77;;;;;;;;;;4984946;28;20888;-82
2022/05/02 03:34:43;;;;;;;10.87;8.00;;;;;;;;;;4986335;28;21068;-82
2022/05/02 03:37:10;;;;;;;9.13;7.20;;;;;;;;;;4985264;28;20471;-83
2022/05/02 03:39:37;;;;;;;10.40;7.43;;;;;;;;;;4987153;28;20443;-83
2022/05/02 03:42:04;;;;;;;12.90;7.40;;;;;;;;;;4988608;28;20568;-82
2022/05/02 03:44:30;;;;;;;9.90;7.27;;;;;;;;;;4987113;28;20495;-82
2022/05/02 03:46:56;;;;;;;10.87;7.97;;;;;;;;;;4987179;28;20469;-81
2022/05/02 03:49:23;;;;;;;7.07;6.37;;;;;;;;;;4985598;28;20538;-82
2022/05/02 03:51:49;;;;;;;9.83;7.33;;;;;;;;;;4984764;28;20505;-82
2022/05/02 03:54:15;;;;;;;11.73;9.00;;;;;;;;;;4988379;28;20483;-82
2022/05/02 03:56:43;;;;;;;10.67;8.60;;;;;;;;;;4986009;28;20483;-82
2022/05/02 03:59:09;;;;;;;14.93;8.93;;;;;;;;;;4986810;28;20873;-82
2022/05/02 04:01:36;;;;;;;15.27;9.60;;;;;;;;;;4988484;28;20557;-82
2022/05/02 04:04:02;;;;;;;15.20;9.27;;;;;;;;;;4985776;28;20553;-82
2022/05/02 04:06:29;;;;;;;13.83;9.80;;;;;;;;;;4986856;28;20491;-82
2022/05/02 04:08:55;;;;;;;12.77;9.33;;;;;;;;;;4986931;28;20474;-82
2022/05/02 04:11:21;;;;;;;10.33;9.20;;;;;;;;;;4986829;28;20479;-82
2022/05/02 04:13:49;;;;;;;9.17;8.27;;;;;;;;;;4987277;28;20490;-82
2022/05/02 04:16:16;;;;;;;11.10;9.03;;;;;;;;;;4986627;28;20481;-82
2022/05/02 04:18:43;;;;;;;11.20;8.40;;;;;;;;;;4987646;28;20481;-83
2022/05/02 04:21:09;;;;;;;13.07;8.90;;;;;;;;;;4985792;28;21876;-82
2022/05/02 04:23:35;;;;;;;14.93;10.07;;;;;;;;;;4985346;28;20512;-82
2022/05/02 04:26:02;;;;;;;14.07;9.43;;;;;;;;;;4986171;28;20507;-82
2022/05/02 04:28:28;;;;;;;11.50;9.63;;;;;;;;;;4987334;28;21035;-82
2022/05/02 04:30:56;;;;;;;11.70;9.20;;;;;;;;;;4986852;28;20479;-82
2022/05/02 04:33:22;;;;;;;10.93;8.97;;;;;;;;;;4985914;28;21027;-81
2022/05/02 04:35:48;;;;;;;10.90;8.70;;;;;;;;;;4989468;28;20479;-82
2022/05/02 04:38:14;;;;;;;10.93;9.67;;;;;;;;;;4988338;28;20462;-82
2022/05/02 04:40:41;;;;;;;11.47;10.27;;;;;;;;;;4985762;28;20915;-82
2022/05/02 04:43:07;;;;;;;13.80;10.10;;;;;;;;;;4988075;28;20980;-81
2022/05/02 04:45:33;;;;;;;12.97;9.80;;;;;;;;;;4987210;28;21150;-83
2022/05/02 04:48:03;;;;;;;18.37;12.17;;;;;;;;;;4988849;28;21314;-83
2022/05/02 04:50:29;;;;;;;16.33;10.60;;;;;;;;;;4988392;28;21043;-82
2022/05/02 04:52:55;;;;;;;14.93;10.20;;;;;;;;;;4990415;28;20851;-82
2022/05/02 04:55:21;;;;;;;14.63;11.20;;;;;;;;;;4989852;28;20483;-83
2022/05/02 04:57:48;;;;;;;19.00;11.80;;;;;;;;;;4987996;28;20510;-82
2022/05/02 05:00:16;;;;;;;12.43;10.03;;;;;;;;;;4989901;28;20534;-82
2022/05/02 05:02:42;;;;;;;18.17;12.40;;;;;;;;;;4989116;28;20466;-82
2022/05/02 05:05:10;;;;;;;16.93;12.00;;;;;;;;;;4989462;28;20475;-83
2022/05/02 05:07:36;;;;;;;12.70;10.33;;;;;;;;;;4991474;28;20466;-83
2022/05/02 05:10:03;;;;;;;15.60;12.47;;;;;;;;;;4990466;28;20913;-82
2022/05/02 05:12:34;;;;;;;14.33;11.90;;;;;;;;;;4991564;28;20483;-83
2022/05/02 05:17:56;;;;;;;18.20;12.10;;;;;;;;;;4985374;28;20878;-82
2022/05/02 05:20:28;;;;;;;14.23;11.27;;;;;;;;;;4985057;28;20830;-81
2022/05/02 05:23:03;;;;;;;15.13;10.07;;;;;;;;;;4986290;28;20470;-81
2022/05/02 05:25:39;;;;;;;15.77;11.30;;;;;;;;;;4985900;28;20487;-82
2022/05/02 05:28:15;;;;;;;13.67;9.70;;;;;;;;;;4985016;28;20463;-81
2022/05/02 05:30:44;;;;;;;14.00;10.23;;;;;;;;;;4984739;28;20490;-82
2022/05/02 05:33:13;;;;;;;14.67;10.33;;;;;;;;;;4986708;28;20458;-82
2022/05/02 05:35:50;;;;;;;11.33;9.73;;;;;;;;;;4985496;28;20533;-81
2022/05/02 05:38:18;;;;;;;13.70;10.10;;;;;;;;;;4984323;28;20471;-82
2022/05/02 05:40:48;;;;;;;15.53;10.63;;;;;;;;;;4985369;28;20490;-81
2022/05/02 05:43:33;;;;;;;14.20;9.47;;;;;;;;;;4985097;28;20535;-82
2022/05/02 05:46:08;;;;;;;11.17;9.77;;;;;;;;;;4981908;28;20696;-83
2022/05/02 05:48:43;;;;;;;13.07;8.80;;;;;;;;;;4983251;28;20463;-84
2022/05/02 05:51:15;;;;;;;9.40;8.47;;;;;;;;;;4984219;28;20513;-83
2022/05/02 05:53:49;;;;;;;8.63;7.70;;;;;;;;;;4985959;28;20501;-83
2022/05/02 05:56:23;;;;;;;11.17;7.93;;;;;;;;;;4984362;28;20470;-83
2022/05/02 05:58:56;;;;;;;10.80;7.60;;;;;;;;;;4985396;28;20526;-82
2022/05/02 06:01:29;;;;;;;7.60;6.87;;;;;;;;;;4987734;28;20511;-82
2022/05/02 06:03:59;;;;;;;7.27;6.30;;;;;;;;;;4988878;28;21611;-84
2022/05/02 06:06:27;;;;;;;7.93;7.13;;;;;;;;;;4988194;28;20525;-83
2022/05/02 06:08:55;;;;;;;6.83;6.23;;;;;;;;;;4987460;28;20444;-83
2022/05/02 06:11:23;;;;;;;9.90;7.27;;;;;;;;;;4986087;28;20471;-82
2022/05/02 06:13:52;;;;;;;8.87;5.70;;;;;;;;;;4989404;28;20574;-83
2022/05/02 06:19:05;;;;;;;8.43;5.67;;;;;;;;;;4990165;28;20550;-84
2022/05/02 06:21:33;;;;;;;10.20;7.07;;;;;;;;;;4989408;28;20494;-83
2022/05/02 06:24:01;;;;;;;10.83;6.90;;;;;;;;;;4991640;28;20483;-83
2022/05/02 06:26:28;;;;;;;9.30;6.30;;;;;;;;;;4991157;28;20478;-82
2022/05/02 06:28:54;;;;;;;8.37;5.73;;;;;;;;;;4986946;28;20450;-84
2022/05/02 06:31:22;;;;;;;9.70;6.10;;;;;;;;;;4985490;28;20490;-83
2022/05/02 06:33:50;;;;;;;9.40;5.00;;;;;;;;;;4985796;28;20968;-83
2022/05/02 06:36:31;;;;;;;9.97;6.50;;;;;;;;;;4984927;28;20479;-83
2022/05/02 06:39:01;;;;;;;9.43;6.07;;;;;;;;;;4972143;28;20902;-85
2022/05/02 06:41:33;;;;;;;7.27;5.93;;;;;;;;;;4986287;28;20481;-84
2022/05/02 06:44:03;;;;;;;6.83;6.00;;;;;;;;;;4985221;28;20483;-83
2022/05/02 06:46:34;;;;;;;16.07;6.20;;;;;;;;;;4986234;28;20536;-83
2022/05/02 06:49:03;;;;;;;7.60;4.70;;;;;;;;;;4985232;28;20459;-84
2022/05/02 06:51:31;;;;;;;6.20;5.60;;;;;;;;;;4985503;28;20531;-84
2022/05/02 06:54:15;;;;;;;8.90;5.50;;;;;;;;;;4986332;28;20542;-83
2022/05/02 06:56:44;;;;;;;7.40;6.10;;;;;;;;;;4985978;28;20504;-83
2022/05/02 06:59:32;;;;;;;7.87;6.00;;;;;;;;;;4987709;28;21004;-83
2022/05/02 07:01:59;;;;;;;6.80;5.03;;;;;;;;;;4990024;28;20452;-84
2022/05/02 07:04:35;;;;;;;7.20;5.73;;;;;;;;;;4990531;28;20466;-83
2022/05/02 07:07:10;;;;;;;9.00;5.70;;;;;;;;;;4989925;28;20521;-84
2022/05/02 07:09:40;;;;;;;6.07;5.37;;;;;;;;;;4987133;28;20486;-83
2022/05/02 07:12:12;;;;;;;6.03;5.43;;;;;;;;;;4990930;28;20470;-83
2022/05/02 07:14:45;;;;;;;7.17;5.87;;;;;;;;;;4992309;28;20576;-83
2022/05/02 07:17:19;;;;;;;5.10;4.60;;;;;;;;;;4993538;28;20457;-83
2022/05/02 07:19:51;;;;;;;5.43;4.93;;;;;;;;;;4990375;28;20458;-83
2022/05/02 07:22:22;;;;;;;6.40;5.00;;;;;;;;;;4991410;28;20481;-83
2022/05/02 07:24:55;;;;;;;5.23;4.67;;;;;;;;;;4990696;28;20533;-83
2022/05/02 07:27:32;;;;;;;6.53;5.00;;;;;;;;;;4988409;28;20463;-82
2022/05/02 07:29:58;;;;;;;6.53;4.70;;;;;;;;;;4987661;28;20910;-83
2022/05/02 07:32:25;;;;;;;5.57;4.60;;;;;;;;;;4987988;28;20455;-83
2022/05/02 07:34:53;;;;;;;6.43;3.93;;;;;;;;;;4988876;28;20474;-84
2022/05/02 07:37:20;;;;;;;6.53;4.70;;;;;;;;;;4988879;28;20451;-83
2022/05/02 07:39:47;;;;;;;6.53;4.10;;;;;;;;;;4987807;28;20578;-83
2022/05/02 07:42:13;;;;;;;3.67;3.37;;;;;;;;;;4989855;28;20470;-84
2022/05/02 07:44:43;;;;;;;5.70;4.20;;;;;;;;;;4985599;28;20486;-84
2022/05/02 07:47:11;;;;;;;4.07;3.67;;;;;;;;;;4989590;28;20455;-84
2022/05/02 07:49:39;;;;;;;4.50;4.00;;;;;;;;;;4990713;28;20446;-83
2022/05/02 07:52:06;;;;;;;6.57;4.83;;;;;;;;;;4988761;28;20529;-84
2022/05/02 07:54:37;;;;;;;5.67;4.47;;;;;;;;;;4987448;28;20473;-84
2022/05/02 07:57:05;;;;;;;8.50;4.90;;;;;;;;;;4989438;28;20819;-84
2022/05/02 07:59:32;;;;;;;7.93;5.07;;;;;;;;;;4988015;28;20550;-84
2022/05/02 08:01:59;;;;;;;5.20;4.30;;;;;;;;;;4988946;28;20892;-84
2022/05/02 08:04:26;;;;;;;5.30;4.10;;;;;;;;;;4990658;28;20454;-84
2022/05/02 08:07:02;;;;;;;4.67;4.20;;;;;;;;;;4988656;28;20474;-84
2022/05/02 08:09:39;;;;;;;6.67;3.97;;;;;;;;;;4989805;28;20452;-83
2022/05/02 08:12:12;;;;;;;7.27;4.23;;;;;;;;;;4990093;28;20820;-83
2022/05/02 08:14:43;;;;;;;5.33;4.83;;;;;;;;;;4989007;28;20857;-84
2022/05/02 08:17:16;;;;;;;8.23;4.50;;;;;;;;;;4990343;28;20451;-84
2022/05/02 08:19:51;;;;;;;5.30;4.03;;;;;;;;;;4989884;28;20451;-84
2022/05/02 08:27:55;;;;;;;4.80;4.40;;;;;;;;;;4988362;28;20502;-84
2022/05/02 08:30:23;;;;;;;6.73;5.13;;;;;;;;;;4988803;28;20468;-84
2022/05/02 08:32:56;;;;;;;6.40;5.27;;;;;;;;;;4990552;28;20432;-84
2022/05/02 08:35:26;;;;;;;8.33;5.87;;;;;;;;;;4989547;28;20482;-84
2022/05/02 08:38:00;;;;;;;8.33;5.60;;;;;;;;;;4991773;28;20490;-84
2022/05/02 08:40:38;;;;;;;8.00;5.40;;;;;;;;;;4990674;28;20525;-83
2022/05/02 08:43:25;;;;;;;6.37;5.07;;;;;;;;;;4990314;28;20469;-84
2022/05/02 08:46:10;;;;;;;8.67;5.33;;;;;;;;;;4965846;28;21070;-83
2022/05/02 08:51:47;;;;;;;7.17;5.53;;;;;;;;;;4991784;28;20485;-86
2022/05/02 08:54:29;;;;;;;10.10;6.53;;;;;;;;;;4991822;28;20478;-85
2022/05/02 08:57:05;;;;;;;8.60;6.47;;;;;;;;;;4992429;28;20441;-84
2022/05/02 08:59:43;;;;;;;9.10;6.80;;;;;;;;;;4991981;28;20463;-84
2022/05/02 09:02:30;;;;;;;6.97;6.37;;;;;;;;;;4994428;28;20926;-84
2022/05/02 09:05:09;;;;;;;7.93;6.03;;;;;;;;;;4968099;28;20471;-84
2022/05/02 09:07:49;;;;;;;8.50;6.30;;;;;;;;;;4994248;28;20414;-84
2022/05/02 09:10:16;;;;;;;8.10;6.33;;;;;;;;;;4993543;28;20506;-84
2022/05/02 09:13:02;;;;;;;7.43;5.43;;;;;;;;;;4992296;28;20547;-82
2022/05/02 09:15:47;;;;;;;8.87;6.67;;;;;;;;;;4992360;28;20480;-84
2022/05/02 09:18:30;;;;;;;8.60;6.70;;;;;;;;;;4991111;28;20429;-86
2022/05/02 09:20:57;;;;;;;7.00;6.30;;;;;;;;;;4994839;28;20469;-84
2022/05/02 09:23:41;;;;;;;7.20;6.50;;;;;;;;;;4992882;28;20425;-83
2022/05/02 09:26:28;;;;;;;8.40;5.43;;;;;;;;;;4990164;28;20542;-83
2022/05/02 09:29:01;;;;;;;8.43;6.07;;;;;;;;;;4988843;28;20799;-83
2022/05/02 09:31:34;;;;;;;8.90;6.30;;;;;;;;;;4988833;28;20447;-84
2022/05/02 09:34:09;;;;;;;6.47;5.77;;;;;;;;;;4994300;28;20544;-83
2022/05/02 09:36:41;;;;;;;14.20;6.73;;;;;;;;;;4996842;28;21009;-84
2022/05/02 09:39:13;;;;;;;8.40;6.50;;;;;;;;;;4995052;28;20455;-84
2022/05/02 09:41:59;;;;;;;9.00;7.00;;;;;;;;;;4994872;28;20485;-84
2022/05/02 09:50:17;;;;;;;7.03;6.33;;;;;;;;;;4994252;28;21042;-84
2022/05/02 09:52:59;;;;;;;9.80;6.13;;;;;;;;;;4995713;28;20442;-84
2022/05/02 09:58:31;;;;;;;8.70;6.70;;;;;;;;;;4991229;28;20441;-85
2022/05/02 10:01:11;;;;;;;7.03;6.33;;;;;;;;;;4993144;28;20497;-83
2022/05/02 10:03:41;;;;;;;7.03;6.33;;;;;;;;;;4997384;28;20452;-84
2022/05/02 10:06:11;;;;;;;6.13;5.53;;;;;;;;;;4996288;28;20474;-83
2022/05/02 10:08:48;;;;;;;6.43;5.73;;;;;;;;;;4997075;28;20463;-84
2022/05/02 10:11:21;;;;;;;8.70;5.33;;;;;;;;;;4990770;28;20474;-85
2022/05/02 10:13:53;;;;;;;7.50;6.80;;;;;;;;;;4991690;28;20483;-84
2022/05/02 10:16:26;;;;;;;8.23;7.23;;;;;;;;;;4990422;28;20474;-85
2022/05/02 10:19:03;;;;;;;9.73;7.50;;;;;;;;;;4989468;28;20810;-84
2022/05/02 10:21:39;;;;;;;7.30;6.30;;;;;;;;;;4992659;28;20471;-86
2022/05/02 10:24:23;;;;;;;6.73;6.03;;;;;;;;;;4994327;28;20505;-85
2022/05/02 10:26:52;;;;;;;7.70;6.83;;;;;;;;;;4992613;28;20544;-85
2022/05/02 10:29:34;;;;;;;8.77;7.50;;;;;;;;;;4993636;28;20475;-85
2022/05/02 10:32:02;;;;;;;7.63;6.90;;;;;;;;;;4993990;28;20479;-82
2022/05/02 10:34:29;;;;;;;7.97;5.97;;;;;;;;;;4992228;28;20471;-83
2022/05/02 10:36:56;;;;;;;9.57;7.00;;;;;;;;;;4991839;28;20515;-84
2022/05/02 10:39:31;;;;;;;7.47;6.77;;;;;;;;;;4993760;28;20586;-83
2022/05/02 10:41:59;;;;;;;7.10;6.40;;;;;;;;;;4992676;28;20459;-83
2022/05/02 10:44:28;;;;;;;10.30;7.83;;;;;;;;;;4991536;28;20481;-84
2022/05/02 10:46:59;;;;;;;8.43;7.33;;;;;;;;;;4994748;28;20459;-84
2022/05/02 10:49:30;;;;;;;9.17;7.73;;;;;;;;;;4991647;28;20517;-84
2022/05/02 10:51:56;;;;;;;8.20;7.40;;;;;;;;;;4990407;28;20487;-84
2022/05/02 10:54:24;;;;;;;;;;;;;;;;;;4991820;28;20325;-84
2022/05/02 10:56:50;;;;;;;;;;;;;;;;;;4991961;28;19925;-83
2022/05/02 10:59:17;;;;;;;;;;;;;;;;;;4989784;28;20351;-84
2022/05/02 11:01:44;;;;;;;;;;;;;;;;;;4990460;28;19969;-84
2022/05/02 11:04:11;;;;;;;;;;;;;;;;;;4992561;28;20017;-84
2022/05/02 11:06:37;;;;;;;;;;;;;;;;;;4988204;28;19921;-83
2022/05/02 11:09:03;;;;;;;;;;;;;;;;;;4987409;28;19982;-82
2022/05/02 11:11:30;;;;;;;;;;;;;;;;;;4985592;28;19968;-82
2022/05/02 11:13:56;;;;;;;;;;;;;;;;;;4988515;28;20460;-82
2022/05/02 11:16:22;;;;;;;;;;;;;;;;;;4988913;28;19922;-83
2022/05/02 11:21:32;;;;;;;;;;;;;;;;;;4987677;28;20402;-83
2022/05/02 11:23:58;;;;;;;;;;;;;;;;;;4988233;28;19930;-83
2022/05/02 11:26:27;;;;;;;;;;;;;;;;;;4985748;28;19922;-83
2022/05/02 11:28:53;;;;;;;;;;;;;;;;;;4986853;28;19922;-83
2022/05/02 11:31:19;;;;;;;;;;;;;;;;;;4986732;28;20487;-82
2022/05/02 11:33:45;;;;;;;;;;;;;;;;;;4986872;28;19922;-81
2022/05/02 11:36:12;;;;;;;;;;;;;;;;;;4987899;28;19984;-82
2022/05/02 11:38:38;;;;;;;;;;;;;;;;;;4987067;28;20005;-82
2022/05/02 11:41:04;;;;;;;;;;;;;;;;;;4987270;28;20347;-82
2022/05/02 11:43:30;;;;;;;;;;;;;;;;;;4987191;28;19922;-82
2022/05/02 11:45:56;;;;;;;;;;;;;;;;;;4987924;28;19972;-82
2022/05/02 11:48:22;;;;;;;;;;;;;;;;;;4985840;28;20529;-82
2022/05/02 11:50:48;;;;;;;;;;;;;;;;;;4988279;28;19921;-82
2022/05/02 11:53:14;;;;;;;;;;;;;;;;;;4990362;28;19925;-82
2022/05/02 11:55:40;;;;;;;;;;;;;;;;;;4986773;28;20490;-83
2022/05/02 11:58:08;;;;;;;;;;;;;;;;;;4985749;28;19928;-81
2022/05/02 12:00:34;;;;;;;;;;;;;;;;;;4987206;28;19922;-83
2022/05/02 12:03:00;;;;;;;;;;;;;;;;;;4986431;28;19961;-82
2022/05/02 12:05:27;;;;;;;;;;;;;;;;;;4986748;28;20519;-83
2022/05/02 12:07:53;;;;;;;;;;;;;;;;;;4985659;28;19949;-82
2022/05/02 12:10:19;;;;;;;;;;;;;;;;;;4987154;28;20066;-82
2022/05/02 12:12:45;;;;;;;;;;;;;;;;;;4986678;28;19949;-82
2022/05/02 12:15:12;;;;;;;;;;;;;;;;;;4987856;28;19922;-83
2022/05/02 12:17:38;;;;;;;;;;;;;;;;;;4987555;28;19976;-82
2022/05/02 12:20:04;;;;;;;;;;;;;;;;;;4986536;28;20505;-81
2022/05/02 12:22:30;;;;;;;;;;;;;;;;;;4985946;28;19949;-82
2022/05/02 12:24:57;;;;;;;;;;;;;;;;;;4986073;28;19921;-82
2022/05/02 12:27:25;;;;;;;;;;;;;;;;;;4986211;28;19957;-83
2022/05/02 12:29:51;;;;;;;;;;;;;;;;;;4985993;28;19968;-81
2022/05/02 12:32:17;;;;;;;;;;;;;;;;;;4987148;28;19976;-83
2022/05/02 12:34:44;;;;;;;;;;;;;;;;;;4986789;28;19949;-83
2022/05/02 12:37:11;;;;;;;;;;;;;;;;;;4987457;28;20004;-84
2022/05/02 12:39:37;;;;;;;;;;;;;;;;;;4984001;28;20036;-84
2022/05/02 12:42:03;;;;;;;;;;;;;;;;;;4987214;28;19968;-83
2022/05/02 12:44:29;;;;;;;;;;;;;;;;;;4986656;28;19968;-82
2022/05/02 12:46:55;;;;;;;;;;;;;;;;;;4987630;28;19926;-83
2022/05/02 12:49:21;;;;;;;;;;;;;;;;;;4984165;28;19922;-84
2022/05/02 12:51:47;;;;;;;;;;;;;;;;;;4984335;28;19933;-83
2022/05/02 12:54:14;;;;;;;;;;;;;;;;;;4987537;28;19988;-83
2022/05/02 12:56:40;;;;;;;;;;;;;;;;;;4986101;28;19926;-83
2022/05/02 13:01:49;;;;;;;;;;;;;;;;;;4989030;28;19928;-83
2022/05/02 13:04:16;;;;;;;;;;;;;;;;;;4987780;28;19926;-84
2022/05/02 13:06:42;;;;;;;;;;;;;;;;;;4988085;28;19977;-83
2022/05/02 13:09:08;;;;;;;;;;;;;;;;;;4989778;28;19930;-82
2022/05/02 13:11:34;;;;;;;;;;;;;;;;;;4990870;28;20009;-83
2022/05/02 13:14:01;;;;;;;;;;;;;;;;;;4992832;28;19925;-83
2022/05/02 13:16:27;;;;;;;;;;;;;;;;;;4991216;28;19926;-84
2022/05/02 13:18:53;;;;;;;;;;;;;;;;;;4990698;28;19925;-84
2022/05/02 13:21:19;;;;;;;;;;;;;;;;;;4993176;28;19922;-84
2022/05/02 13:23:45;;;;;;;;;;;;;;;;;;4992350;28;19963;-84
2022/05/02 13:26:11;;;;;;;;;;;;;;;;;;4989941;28;20687;-84
2022/05/02 13:28:37;;;;;;;;;;;;;;;;;;4989726;28;19928;-85
2022/05/02 13:31:03;;;;;;;;;;;;;;;;;;4988540;28;19976;-84
2022/05/02 13:33:29;;;;;;;;;;;;;;;;;;4987067;28;20336;-84
2022/05/02 13:35:55;;;;;;;;;;;;;;;;;;4986811;28;19976;-84
2022/05/02 13:38:22;;;;;;;;;;;;;;;;;;4987129;28;19980;-84
2022/05/02 13:40:48;;;;;;;;;;;;;;;;;;4988555;28;19928;-85
2022/05/02 13:43:14;;;;;;;;;;;;;;;;;;4986314;28;19945;-84
2022/05/02 13:45:42;;;;;;;;;;;;;;;;;;4989118;28;19925;-84
2022/05/02 13:48:08;;;;;;;;;;;;;;;;;;4989467;28;19961;-85
2022/05/02 13:50:34;;;;;;;;;;;;;;;;;;4989011;28;20336;-84
2022/05/02 13:53:02;;;;;;;;;;;;;;;;;;4989381;28;19949;-85
2022/05/02 13:55:28;;;;;;;;;;;;;;;;;;4989952;28;19922;-84
2022/05/02 13:57:55;;;;;;;;;;;;;;;;;;4987343;28;20029;-84
2022/05/02 14:01:22;;;;;;;;;;;;;;;;;;4986038;28;19922;-84
2022/05/02 14:03:32;;;;;;;;;;;;;;;;;;4984148;28;19922;-84
2022/05/02 14:06:00;;;;;;;;;;;;;;;;;;4986937;28;19922;-84
2022/05/02 14:08:26;;;;;;;;;;;;;;;;;;4986139;28;20356;-84
2022/05/02 14:10:53;;;;;;;;;;;;;;;;;;4985856;28;20410;-84
2022/05/02 14:13:19;;;;;;;;;;;;;;;;;;4984296;28;19929;-84
2022/05/02 14:15:45;;;;;;;;;;;;;;;;;;4984911;28;19949;-83
2022/05/02 14:18:16;;;;;;;;;;;;;;;;;;4983706;28;19996;-84
2022/05/02 14:20:42;;;;;;;;;;;;;;;;;;4982736;28;19933;-84
2022/05/02 14:23:08;;;;;;;;;;;;;;;;;;4985218;28;19930;-84
2022/05/02 14:25:34;;;;;;;;;;;;;;;;;;4986232;28;19928;-84
2022/05/02 14:28:01;;;;;;;;;;;;;;;;;;4984196;28;19933;-83
2022/05/02 14:30:27;;;;;;;;;;;;;;;;;;4985257;28;19933;-84
2022/05/02 14:32:53;;;;;;;;;;;;;;;;;;4986282;28;20342;-84
2022/05/02 14:35:19;;;;;;;;;;;;;;;;;;4985468;28;20394;-85
2022/05/02 14:37:46;;;;;;;;;;;;;;;;;;4985850;28;19980;-84
2022/05/02 14:40:12;;;;;;;;;;;;;;;;;;4983124;28;20009;-84
2022/05/02 14:42:38;;;;;;;;;;;;;;;;;;4983229;28;19929;-85
2022/05/02 14:45:04;;;;;;;;;;;;;;;;;;4985153;28;19926;-85
2022/05/02 14:47:31;;;;;;;;;;;;;;;;;;4984870;28;20350;-85
2022/05/02 14:49:57;;;;;;;;;;;;;;;;;;4983579;28;19926;-85
2022/05/02 14:52:23;;;;;;;;;;;;;;;;;;4985919;28;19922;-85
2022/05/02 14:54:49;;;;;;;;;;;;;;;;;;4983008;28;19926;-86
2022/05/02 14:57:16;;;;;;;;;;;;;;;;;;4982948;28;19926;-85
2022/05/02 14:59:42;;;;;;;;;;;;;;;;;;4982669;28;20590;-85
2022/05/02 15:02:08;;;;;;;;;;;;;;;;;;4987669;28;19933;-84
2022/05/02 15:04:34;;;;;;;;;;;;;;;;;;4982192;28;19930;-85
2022/05/02 15:07:00;;;;;;;;;;;;;;;;;;4986017;28;19940;-84
2022/05/02 15:10:11;;;;;;;;;;;;;;;;;;4985445;28;20302;-84
2022/05/02 15:12:13;;;;;;;;;;;;;;;;;;4986229;28;20386;-85
2022/05/02 15:14:39;;;;;;;;;;;;;;;;;;4985509;28;20012;-84
2022/05/02 15:17:06;;;;;;;;;;;;;;;;;;4986130;28;20380;-85
2022/05/02 15:19:37;;;;;;;;;;;;;;;;;;4983322;28;19926;-85
2022/05/02 15:22:03;;;;;;;;;;;;;;;;;;4985047;28;19926;-85
2022/05/02 15:24:29;;;;;;;;;;;;;;;;;;4985041;28;20607;-85
2022/05/02 15:26:55;;;;;;;;;;;;;;;;;;4985753;28;19922;-83
2022/05/02 15:37:33;;;;;;;;;;;;;;;;;;4987006;28;20379;-85
2022/05/02 15:39:59;;;;;;;;;;;;;;;;;;4984599;28;19922;-84
2022/05/02 15:42:25;;;;;;;;;;;;;;;;;;4987327;28;19925;-85
2022/05/02 15:44:52;;;;;;;;;;;;;;;;;;4984136;28;19926;-85
2022/05/02 15:47:18;;;;;;;;;;;;;;;;;;4983951;28;20000;-84
2022/05/02 15:49:44;;;;;;;;;;;;;;;;;;4983168;28;19921;-84
2022/05/02 15:52:11;;;;;;;;;;;;;;;;;;4985325;28;19929;-84
2022/05/02 15:54:37;;;;;;;;;;;;;;;;;;4986077;28;19981;-85
2022/05/02 15:57:04;;;;;;;;;;;;;;;;;;4986635;28;19930;-86
2022/05/02 15:59:30;;;;;;;;;;;;;;;;;;4982853;28;19921;-85
2022/05/02 16:01:56;;;;;;;;;;;;;;;;;;4985946;28;19926;-85
2022/05/02 16:04:22;;;;;;;;;;;;;;;;;;4985356;28;20020;-85